createdAt,value
2023-03-01T00:02:38.701Z,91.70
2023-03-01T00:05:24.035Z,91.80
2023-03-01T00:08:09.722Z,92.10
2023-03-01T00:11:11.034Z,92.10
2023-03-01T00:13:59.050Z,91.90
2023-03-01T00:16:51.378Z,92.20
2023-03-01T00:19:39.395Z,92.40
2023-03-01T00:22:24.712Z,92.40
2023-03-01T00:25:10.377Z,92.50
2023-03-01T00:27:57.554Z,92.50
2023-03-01T00:30:43.692Z,92.90
2023-03-01T00:33:29.012Z,92.50
2023-03-01T00:36:16.076Z,92.50
2023-03-01T00:39:01.931Z,92.50
2023-03-01T00:41:47.349Z,92.50
2023-03-01T00:44:33.084Z,92.60
2023-03-01T00:47:18.293Z,92.50
2023-03-01T00:50:04.196Z,92.60
2023-03-01T00:52:54.563Z,92.60
2023-03-01T00:55:41.050Z,92.70
2023-03-01T00:58:26.494Z,92.70
2023-03-01T01:01:20.712Z,92.60
2023-03-01T01:04:09.743Z,92.40
2023-03-01T01:07:01.947Z,92.70
2023-03-01T01:09:50.253Z,92.40
2023-03-01T01:12:39.271Z,92.60
2023-03-01T01:15:24.823Z,95.70
2023-03-01T01:18:10.626Z,92.30
2023-03-01T01:20:58.088Z,92.70
2023-03-01T01:23:44.797Z,92.50
2023-03-01T01:26:34.389Z,99.90
2023-03-01T01:29:20.218Z,92.70
2023-03-01T01:32:05.994Z,94.40
2023-03-01T01:37:37.954Z,92.70
2023-03-01T01:40:23.454Z,92.80
2023-03-01T01:43:24.897Z,92.80
2023-03-01T01:46:30.134Z,93.10
2023-03-01T01:49:48.548Z,93.20
2023-03-01T01:52:38.662Z,95.70
2023-03-01T01:55:32.481Z,92.80
2023-03-01T01:58:21.795Z,98.60
2023-03-01T02:01:08.927Z,92.80
2023-03-01T02:03:54.396Z,93.20
2023-03-01T02:06:51.355Z,92.90
2023-03-01T02:09:40.798Z,93.20
2023-03-01T02:12:30.540Z,93.30
2023-03-01T02:15:16.183Z,95.30
2023-03-01T02:18:05.874Z,92.90
2023-03-01T02:21:14.442Z,92.90
2023-03-01T02:24:06.889Z,92.90
2023-03-01T02:26:57.722Z,93.30
2023-03-01T02:29:44.961Z,93.20
2023-03-01T02:32:30.437Z,93.20
2023-03-01T02:35:19.226Z,93.20
2023-03-01T02:38:08.852Z,93.30
2023-03-01T02:40:57.419Z,93.40
2023-03-01T02:43:43.063Z,93.30
2023-03-01T02:46:29.007Z,93.20
2023-03-01T02:49:30.345Z,93.30
2023-03-01T02:52:37.497Z,93.30
2023-03-01T02:55:34.634Z,93.20
2023-03-01T02:58:24.501Z,93.30
2023-03-01T03:01:10.911Z,93.30
2023-03-01T03:03:56.652Z,93.30
2023-03-01T03:06:50.182Z,93.30
2023-03-01T03:09:35.873Z,93.40
2023-03-01T03:12:23.681Z,93.30
2023-03-01T03:15:13.878Z,93.40
2023-03-01T03:18:00.069Z,93.40
2023-03-01T03:20:46.307Z,93.40
2023-03-01T03:23:32.383Z,93.40
2023-03-01T03:26:17.717Z,93.30
2023-03-01T03:29:05.859Z,93.40
2023-03-01T03:31:51.424Z,93.40
2023-03-01T03:34:37.023Z,93.40
2023-03-01T03:37:40.812Z,93.40
2023-03-01T03:40:28.335Z,93.30
2023-03-01T03:43:15.409Z,93.40
2023-03-01T03:46:01.544Z,93.40
2023-03-01T03:48:47.276Z,93.60
2023-03-01T03:51:32.478Z,93.50
2023-03-01T03:54:21.464Z,93.50
2023-03-01T03:57:07.016Z,93.30
2023-03-01T03:59:52.416Z,93.20
2023-03-01T04:02:40.962Z,93.50
2023-03-01T04:05:26.629Z,93.30
2023-03-01T04:08:13.039Z,93.30
2023-03-01T04:11:22.474Z,93.20
2023-03-01T04:14:07.902Z,93.40
2023-03-01T04:16:53.530Z,93.60
2023-03-01T04:19:39.497Z,93.50
2023-03-01T04:22:30.803Z,93.60
2023-03-01T04:25:16.048Z,93.60
2023-03-01T04:28:01.580Z,93.70
2023-03-01T04:30:46.982Z,93.70
2023-03-01T04:33:32.490Z,93.70
2023-03-01T04:36:20.812Z,93.60
2023-03-01T04:39:15.106Z,93.50
2023-03-01T04:42:00.540Z,93.40
2023-03-01T04:44:46.847Z,93.40
2023-03-01T04:47:32.371Z,93.30
2023-03-01T04:50:21.425Z,93.30
2023-03-01T04:53:06.877Z,93.40
2023-03-01T04:55:52.429Z,93.50
2023-03-01T04:58:38.010Z,93.50
2023-03-01T05:01:23.814Z,93.50
2023-03-01T05:04:15.666Z,93.50
2023-03-01T05:07:01.217Z,93.60
2023-03-01T05:09:47.580Z,93.60
2023-03-01T05:12:33.147Z,93.60
2023-03-01T05:15:21.132Z,93.60
2023-03-01T05:18:12.311Z,93.70
2023-03-01T05:21:12.901Z,93.80
2023-03-01T05:23:58.474Z,93.60
2023-03-01T05:26:44.422Z,93.70
2023-03-01T05:29:31.863Z,93.70
2023-03-01T05:32:17.607Z,93.80
2023-03-01T05:35:03.078Z,93.80
2023-03-01T05:37:50.413Z,94.10
2023-03-01T05:40:36.491Z,94.00
2023-03-01T05:43:22.005Z,94.10
2023-03-01T05:46:07.735Z,94.00
2023-03-01T05:48:52.956Z,94.00
2023-03-01T05:51:38.423Z,93.90
2023-03-01T05:54:25.772Z,93.50
2023-03-01T05:57:11.422Z,93.90
2023-03-01T05:59:57.126Z,93.80
2023-03-01T06:02:42.922Z,93.80
2023-03-01T06:05:29.056Z,93.70
2023-03-01T06:08:14.944Z,93.40
2023-03-01T06:11:01.316Z,93.40
2023-03-01T06:13:47.669Z,99.90
2023-03-01T06:16:33.281Z,93.00
2023-03-01T06:19:18.856Z,93.00
2023-03-01T06:22:04.089Z,93.40
2023-03-01T06:24:49.545Z,96.30
2023-03-01T06:27:35.232Z,93.30
2023-03-01T06:30:22.260Z,93.60
2023-03-01T06:33:07.476Z,93.70
2023-03-01T06:35:58.281Z,93.70
2023-03-01T06:38:46.434Z,93.80
2023-03-01T06:41:31.959Z,93.80
2023-03-01T06:44:17.333Z,93.80
2023-03-01T06:47:03.236Z,93.90
2023-03-01T06:49:48.597Z,94.00
2023-03-01T06:52:34.376Z,94.10
2023-03-01T06:55:19.862Z,94.10
2023-03-01T06:58:05.188Z,93.90
2023-03-01T07:00:51.067Z,93.80
2023-03-01T07:03:36.272Z,93.90
2023-03-01T07:06:22.287Z,94.00
2023-03-01T07:09:09.234Z,94.00
2023-03-01T07:11:57.313Z,94.10
2023-03-01T07:14:44.766Z,94.10
2023-03-01T07:17:30.396Z,94.20
2023-03-01T07:20:16.257Z,94.20
2023-03-01T07:23:01.442Z,94.20
2023-03-01T07:25:53.982Z,94.30
2023-03-01T07:28:40.291Z,94.30
2023-03-01T07:31:28.842Z,94.30
2023-03-01T07:34:16.814Z,94.40
2023-03-01T07:37:02.154Z,94.30
2023-03-01T07:39:47.652Z,94.20
2023-03-01T07:42:33.340Z,94.20
2023-03-01T07:45:24.348Z,94.30
2023-03-01T07:48:09.748Z,94.40
2023-03-01T07:50:55.260Z,94.40
2023-03-01T07:53:41.105Z,94.30
2023-03-01T07:56:26.383Z,94.20
2023-03-01T07:59:11.979Z,94.20
2023-03-01T08:01:58.170Z,94.30
2023-03-01T08:04:43.891Z,94.10
2023-03-01T08:07:29.177Z,94.10
2023-03-01T08:10:14.767Z,94.20
2023-03-01T08:13:00.377Z,94.10
2023-03-01T08:15:46.192Z,94.10
2023-03-01T08:18:32.883Z,94.10
2023-03-01T08:21:19.540Z,94.10
2023-03-01T08:24:09.190Z,93.90
2023-03-01T08:26:54.980Z,93.80
2023-03-01T08:29:40.816Z,93.70
2023-03-01T08:32:29.139Z,93.50
2023-03-01T08:35:15.144Z,93.70
2023-03-01T08:38:05.848Z,93.30
2023-03-01T08:40:54.132Z,93.20
2023-03-01T08:43:42.397Z,93.40
2023-03-01T08:46:29.894Z,93.10
2023-03-01T08:49:23.255Z,92.80
2023-03-01T08:52:08.994Z,93.00
2023-03-01T08:54:54.498Z,92.60
2023-03-01T08:57:39.759Z,92.70
2023-03-01T09:00:26.164Z,92.60
2023-03-01T09:03:11.625Z,92.80
2023-03-01T09:06:02.507Z,92.60
2023-03-01T09:08:49.865Z,92.60
2023-03-01T09:11:35.232Z,92.60
2023-03-01T09:14:20.807Z,92.50
2023-03-01T09:17:06.429Z,92.60
2023-03-01T09:19:51.780Z,92.40
2023-03-01T09:22:37.189Z,92.30
2023-03-01T09:25:23.074Z,92.30
2023-03-01T09:28:09.551Z,92.40
2023-03-01T09:31:01.865Z,92.30
2023-03-01T09:33:49.351Z,92.20
2023-03-01T09:36:37.788Z,92.00
2023-03-01T09:39:23.250Z,92.10
2023-03-01T09:42:13.592Z,92.10
2023-03-01T09:45:01.032Z,92.20
2023-03-01T09:47:46.974Z,91.80
2023-03-01T09:50:39.901Z,91.60
2023-03-01T09:53:33.627Z,91.50
2023-03-01T09:56:32.146Z,91.10
2023-03-01T09:59:27.025Z,91.10
2023-03-01T10:03:00.806Z,91.00
2023-03-01T10:06:07.432Z,90.90
2023-03-01T10:08:59.630Z,90.70
2023-03-01T10:11:55.072Z,90.50
2023-03-01T10:14:43.672Z,90.80
2023-03-01T10:17:45.641Z,90.10
2023-03-01T10:20:55.028Z,88.70
2023-03-01T10:23:42.862Z,88.00
2023-03-01T10:26:49.454Z,87.00
2023-03-01T10:29:47.282Z,86.20
2023-03-01T10:32:35.636Z,86.30
2023-03-01T10:35:28.303Z,85.30
2023-03-01T10:38:15.387Z,84.10
2023-03-01T10:41:09.477Z,83.50
2023-03-01T10:43:57.987Z,83.20
2023-03-01T10:46:43.570Z,82.70
2023-03-01T10:49:29.508Z,83.10
2023-03-01T10:52:23.871Z,81.20
2023-03-01T10:55:51.323Z,80.50
2023-03-01T10:58:39.475Z,79.80
2023-03-01T11:01:36.426Z,78.80
2023-03-01T11:04:29.298Z,77.50
2023-03-01T11:07:14.896Z,77.20
2023-03-01T11:10:00.337Z,75.60
2023-03-01T11:12:46.029Z,73.50
2023-03-01T11:15:31.745Z,73.00
2023-03-01T11:18:21.759Z,71.70
2023-03-01T11:21:09.791Z,68.60
2023-03-01T11:23:55.362Z,68.60
2023-03-01T11:26:44.387Z,66.10
2023-03-01T11:29:49.194Z,64.30
2023-03-01T11:32:50.140Z,64.00
2023-03-01T11:35:43.117Z,63.20
2023-03-01T11:38:33.445Z,60.60
2023-03-01T11:41:22.977Z,58.60
2023-03-01T11:44:30.357Z,57.00
2023-03-01T11:47:41.344Z,54.50
2023-03-01T11:50:45.374Z,52.40
2023-03-01T11:53:40.436Z,48.10
2023-03-01T11:56:48.059Z,46.00
2023-03-01T11:59:54.253Z,43.50
2023-03-01T12:03:04.654Z,42.70
2023-03-01T12:06:27.456Z,39.60
2023-03-01T12:09:28.898Z,38.10
2023-03-01T12:12:29.449Z,37.00
2023-03-01T12:15:52.896Z,35.10
2023-03-01T12:18:56.993Z,32.70
2023-03-01T12:22:10.769Z,32.40
2023-03-01T12:25:17.092Z,31.40
2023-03-01T12:28:10.752Z,29.60
2023-03-01T12:31:37.547Z,28.30
2023-03-01T12:34:44.402Z,28.20
2023-03-01T12:37:56.240Z,27.30
2023-03-01T12:41:21.419Z,27.10
2023-03-01T12:44:13.017Z,26.10
2023-03-01T12:47:40.374Z,25.80
2023-03-01T12:51:03.341Z,25.10
2023-03-01T12:53:50.159Z,24.40
2023-03-01T12:56:39.372Z,24.30
2023-03-01T12:59:51.787Z,23.90
2023-03-01T13:02:56.117Z,22.90
2023-03-01T13:05:53.901Z,23.00
2023-03-01T13:08:52.004Z,22.80
2023-03-01T13:11:37.481Z,22.60
2023-03-01T13:14:26.020Z,21.70
2023-03-01T13:17:33.000Z,21.80
2023-03-01T13:20:20.661Z,20.90
2023-03-01T13:23:14.281Z,21.20
2023-03-01T13:25:59.746Z,21.30
2023-03-01T13:28:45.100Z,21.10
2023-03-01T13:31:34.813Z,20.70
2023-03-01T13:35:04.442Z,20.60
2023-03-01T13:37:50.085Z,20.40
2023-03-01T13:40:35.624Z,20.20
2023-03-01T13:43:30.418Z,19.90
2023-03-01T13:46:24.875Z,19.90
2023-03-01T13:49:17.181Z,19.60
2023-03-01T13:52:24.093Z,19.70
2023-03-01T13:55:24.896Z,19.10
2023-03-01T13:58:23.302Z,19.30
2023-03-01T14:01:21.300Z,19.20
2023-03-01T14:04:39.954Z,19.60
2023-03-01T14:07:26.652Z,19.40
2023-03-01T14:10:16.495Z,19.30
2023-03-01T14:13:16.222Z,18.80
2023-03-01T14:16:30.466Z,19.00
2023-03-01T14:19:32.722Z,19.20
2023-03-01T14:22:21.513Z,19.00
2023-03-01T14:25:22.403Z,18.30
2023-03-01T14:28:26.604Z,18.50
2023-03-01T14:31:38.470Z,18.30
2023-03-01T14:34:36.823Z,18.50
2023-03-01T14:37:26.228Z,18.30
2023-03-01T14:40:28.345Z,18.50
2023-03-01T14:43:21.343Z,18.70
2023-03-01T14:46:06.914Z,18.40
2023-03-01T14:49:30.399Z,18.50
2023-03-01T14:52:27.030Z,18.50
2023-03-01T14:55:47.233Z,18.40
2023-03-01T14:58:34.870Z,18.30
2023-03-01T15:01:21.108Z,18.30
2023-03-01T15:04:09.791Z,18.00
2023-03-01T15:07:05.845Z,18.10
2023-03-01T15:09:51.976Z,17.70
2023-03-01T15:12:40.538Z,17.60
2023-03-01T15:15:37.714Z,17.60
2023-03-01T15:18:31.258Z,17.30
2023-03-01T15:21:26.512Z,16.90
2023-03-01T15:24:20.996Z,16.60
2023-03-01T15:27:15.278Z,17.40
2023-03-01T15:30:03.191Z,16.80
2023-03-01T15:33:20.705Z,16.90
2023-03-01T15:36:44.557Z,16.70
2023-03-01T15:40:03.258Z,16.90
2023-03-01T15:42:48.853Z,16.80
2023-03-01T15:45:35.154Z,17.10
2023-03-01T15:48:21.537Z,17.10
2023-03-01T15:51:13.880Z,17.50
2023-03-01T15:54:14.233Z,17.70
2023-03-01T15:56:59.901Z,17.80
2023-03-01T15:59:45.561Z,17.90
2023-03-01T16:02:30.874Z,17.70
2023-03-01T16:05:20.981Z,17.90
2023-03-01T16:08:07.149Z,17.70
2023-03-01T16:10:54.464Z,18.20
2023-03-01T16:13:40.170Z,18.50
2023-03-01T16:16:25.744Z,19.00
2023-03-01T16:19:11.638Z,19.50
2023-03-01T16:21:57.131Z,19.90
2023-03-01T16:24:42.568Z,20.60
2023-03-01T16:27:27.936Z,21.30
2023-03-01T16:30:15.305Z,21.80
2023-03-01T16:33:00.897Z,22.30
2023-03-01T16:35:46.156Z,23.20
2023-03-01T16:38:34.372Z,23.60
2023-03-01T16:41:22.440Z,24.00
2023-03-01T16:44:07.983Z,24.50
2023-03-01T16:46:53.297Z,24.90
2023-03-01T16:49:38.733Z,25.40
2023-03-01T16:52:24.318Z,25.30
2023-03-01T16:55:10.820Z,25.90
2023-03-01T16:57:56.499Z,26.50
2023-03-01T17:00:41.822Z,28.40
2023-03-01T17:03:31.950Z,30.50
2023-03-01T17:06:21.637Z,32.90
2023-03-01T17:09:07.054Z,35.30
2023-03-01T17:11:52.528Z,36.80
2023-03-01T17:14:39.469Z,37.30
2023-03-01T17:17:24.992Z,38.50
2023-03-01T17:20:11.355Z,40.00
2023-03-01T17:22:56.933Z,41.70
2023-03-01T17:25:46.647Z,43.50
2023-03-01T17:28:33.759Z,45.60
2023-03-01T17:31:20.051Z,47.00
2023-03-01T17:34:05.763Z,48.50
2023-03-01T17:36:52.259Z,49.90
2023-03-01T17:39:37.974Z,51.20
2023-03-01T17:42:23.678Z,52.50
2023-03-01T17:45:09.676Z,53.30
2023-03-01T17:47:54.953Z,54.10
2023-03-01T17:50:40.771Z,54.90
2023-03-01T17:53:29.965Z,55.80
2023-03-01T17:56:18.148Z,56.80
2023-03-01T17:59:04.977Z,57.20
2023-03-01T18:01:50.629Z,57.50
2023-03-01T18:04:36.318Z,58.20
2023-03-01T18:07:21.526Z,58.60
2023-03-01T18:10:07.677Z,58.80
2023-03-01T18:12:56.668Z,59.20
2023-03-01T18:15:42.247Z,59.60
2023-03-01T18:18:28.869Z,59.80
2023-03-01T18:21:15.540Z,60.00
2023-03-01T18:24:00.802Z,60.50
2023-03-01T18:26:47.009Z,60.80
2023-03-01T18:29:33.917Z,61.80
2023-03-01T18:32:19.571Z,62.50
2023-03-01T18:35:05.815Z,63.40
2023-03-01T18:37:54.130Z,63.70
2023-03-01T18:40:40.797Z,64.50
2023-03-01T18:43:28.848Z,64.90
2023-03-01T18:46:15.013Z,65.30
2023-03-01T18:49:00.391Z,66.00
2023-03-01T18:51:46.091Z,66.00
2023-03-01T18:54:33.676Z,66.40
2023-03-01T18:57:25.859Z,67.10
2023-03-01T19:00:13.107Z,67.40
2023-03-01T19:02:59.409Z,67.70
2023-03-01T19:05:46.271Z,68.10
2023-03-01T19:08:32.230Z,68.50
2023-03-01T19:11:17.959Z,68.50
2023-03-01T19:14:04.812Z,68.50
2023-03-01T19:16:50.191Z,68.50
2023-03-01T19:19:36.496Z,68.40
2023-03-01T19:22:21.622Z,68.20
2023-03-01T19:25:07.792Z,67.90
2023-03-01T19:27:53.128Z,67.70
2023-03-01T19:30:41.659Z,67.60
2023-03-01T19:33:28.810Z,68.00
2023-03-01T19:36:14.844Z,68.30
2023-03-01T19:39:02.185Z,68.80
2023-03-01T19:41:49.951Z,69.20
2023-03-01T19:44:38.918Z,69.20
2023-03-01T19:47:24.425Z,69.10
2023-03-01T19:50:10.371Z,69.00
2023-03-01T19:52:56.036Z,69.20
2023-03-01T19:55:42.371Z,69.20
2023-03-01T19:58:29.760Z,69.40
2023-03-01T20:01:18.021Z,69.90
2023-03-01T20:04:04.771Z,70.40
2023-03-01T20:06:50.357Z,70.30
2023-03-01T20:09:36.121Z,71.20
2023-03-01T20:12:21.519Z,71.70
2023-03-01T20:15:07.819Z,71.70
2023-03-01T20:17:53.388Z,72.30
2023-03-01T20:20:38.703Z,72.70
2023-03-01T20:23:24.316Z,72.80
2023-03-01T20:26:16.607Z,73.30
2023-03-01T20:29:02.820Z,73.50
2023-03-01T20:31:48.305Z,74.10
2023-03-01T20:34:37.238Z,74.60
2023-03-01T20:37:22.930Z,74.70
2023-03-01T20:40:09.677Z,74.90
2023-03-01T20:42:55.617Z,75.00
2023-03-01T20:45:41.124Z,75.00
2023-03-01T20:48:31.847Z,75.80
2023-03-01T20:51:17.668Z,75.40
2023-03-01T20:54:04.187Z,75.60
2023-03-01T20:56:54.916Z,75.70
2023-03-01T20:59:40.495Z,75.70
2023-03-01T21:02:28.351Z,76.00
2023-03-01T21:05:16.803Z,76.20
2023-03-01T21:08:02.913Z,76.50
2023-03-01T21:11:00.539Z,76.80
2023-03-01T21:13:46.588Z,77.20
2023-03-01T21:16:33.423Z,77.50
2023-03-01T21:19:27.625Z,77.60
2023-03-01T21:22:15.117Z,77.80
2023-03-01T21:25:03.772Z,77.90
2023-03-01T21:27:49.422Z,77.90
2023-03-01T21:30:35.097Z,78.00
2023-03-01T21:33:20.779Z,78.50
2023-03-01T21:36:09.065Z,78.80
2023-03-01T21:38:55.194Z,78.90
2023-03-01T21:41:40.914Z,79.00
2023-03-01T21:44:28.184Z,79.50
2023-03-01T21:47:13.568Z,79.90
2023-03-01T21:49:58.916Z,80.10
2023-03-01T21:52:44.906Z,81.00
2023-03-01T21:55:34.398Z,80.20
2023-03-01T21:58:20.225Z,80.40
2023-03-01T22:01:14.915Z,80.70
2023-03-01T22:04:04.641Z,80.90
2023-03-01T22:06:54.334Z,81.00
2023-03-01T22:09:42.017Z,81.20
2023-03-01T22:12:27.531Z,81.20
2023-03-01T22:15:13.264Z,81.30
2023-03-01T22:17:58.928Z,81.40
2023-03-01T22:20:44.144Z,81.90
2023-03-01T22:23:30.135Z,82.20
2023-03-01T22:26:28.484Z,82.20
2023-03-01T22:29:20.104Z,82.50
2023-03-01T22:32:06.112Z,82.30
2023-03-01T22:34:51.590Z,82.20
2023-03-01T22:37:37.529Z,82.00
2023-03-01T22:40:23.096Z,82.10
2023-03-01T22:43:08.839Z,83.00
2023-03-01T22:46:09.221Z,82.30
2023-03-01T22:48:54.885Z,82.40
2023-03-01T22:51:42.620Z,82.30
2023-03-01T22:54:28.445Z,82.40
2023-03-01T22:57:13.923Z,82.70
2023-03-01T22:59:59.651Z,82.80
2023-03-01T23:02:45.583Z,82.70
2023-03-01T23:05:31.162Z,83.00
2023-03-01T23:08:16.750Z,83.20
2023-03-01T23:11:03.002Z,83.40
2023-03-01T23:13:49.289Z,83.30
2023-03-01T23:16:36.453Z,83.10
2023-03-01T23:19:22.125Z,83.20
2023-03-01T23:22:07.459Z,83.50
2023-03-01T23:24:53.131Z,84.20
2023-03-01T23:27:42.254Z,84.40
2023-03-01T23:30:27.965Z,84.80
2023-03-01T23:33:13.761Z,85.00
2023-03-01T23:36:02.635Z,85.20
2023-03-01T23:38:50.131Z,85.60
2023-03-01T23:41:36.073Z,86.00
2023-03-01T23:44:25.200Z,86.20
2023-03-01T23:47:10.759Z,86.50
2023-03-01T23:49:58.900Z,87.30
2023-03-01T23:52:44.388Z,87.60
2023-03-01T23:55:35.189Z,88.00
2023-03-01T23:58:28.705Z,88.10
